sensor_id;sensor_type;location;lat;lon;timestamp;temperature;humidity
64143;DHT22;50437;51.970;5.904;2023-03-12T00:00:30;1.90;99.90
64143;DHT22;50437;51.970;5.904;2023-03-12T00:02:56;1.90;99.90
64143;DHT22;50437;51.970;5.904;2023-03-12T00:05:22;1.90;99.90
64143;DHT22;50437;51.970;5.904;2023-03-12T00:07:50;1.90;99.90
64143;DHT22;50437;51.970;5.904;2023-03-12T00:10:17;1.90;99.90
64143;DHT22;50437;51.970;5.904;2023-03-12T00:12:43;1.90;99.90
64143;DHT22;50437;51.970;5.904;2023-03-12T00:15:09;1.90;99.90
64143;DHT22;50437;51.970;5.904;2023-03-12T00:17:35;2.00;99.90
64143;DHT22;50437;51.970;5.904;2023-03-12T00:20:01;1.90;99.90
64143;DHT22;50437;51.970;5.904;2023-03-12T00:22:28;1.90;99.90
64143;DHT22;50437;51.970;5.904;2023-03-12T00:24:55;1.90;99.90
64143;DHT22;50437;51.970;5.904;2023-03-12T00:27:21;1.90;99.90
64143;DHT22;50437;51.970;5.904;2023-03-12T00:29:48;1.90;99.90
64143;DHT22;50437;51.970;5.904;2023-03-12T00:32:15;1.90;99.90
64143;DHT22;50437;51.970;5.904;2023-03-12T00:34:41;1.90;99.90
64143;DHT22;50437;51.970;5.904;2023-03-12T00:37:07;1.90;99.90
64143;DHT22;50437;51.970;5.904;2023-03-12T00:39:33;1.90;99.90
64143;DHT22;50437;51.970;5.904;2023-03-12T00:41:59;2.00;99.90
64143;DHT22;50437;51.970;5.904;2023-03-12T00:44:25;1.90;99.90
64143;DHT22;50437;51.970;5.904;2023-03-12T00:46:52;2.00;99.90
64143;DHT22;50437;51.970;5.904;2023-03-12T00:49:18;2.00;99.90
64143;DHT22;50437;51.970;5.904;2023-03-12T00:51:44;2.00;99.90
64143;DHT22;50437;51.970;5.904;2023-03-12T00:54:10;2.00;99.90
64143;DHT22;50437;51.970;5.904;2023-03-12T00:56:36;2.10;99.90
64143;DHT22;50437;51.970;5.904;2023-03-12T00:59:02;2.10;99.90
64143;DHT22;50437;51.970;5.904;2023-03-12T01:01:28;2.10;99.90
64143;DHT22;50437;51.970;5.904;2023-03-12T01:03:54;2.10;99.90
64143;DHT22;50437;51.970;5.904;2023-03-12T01:06:20;2.20;99.90
64143;DHT22;50437;51.970;5.904;2023-03-12T01:08:46;2.20;99.90
64143;DHT22;50437;51.970;5.904;2023-03-12T01:11:13;2.20;99.90
64143;DHT22;50437;51.970;5.904;2023-03-12T01:13:39;2.20;99.90
64143;DHT22;50437;51.970;5.904;2023-03-12T01:16:05;2.20;99.90
64143;DHT22;50437;51.970;5.904;2023-03-12T01:18:31;2.20;99.90
64143;DHT22;50437;51.970;5.904;2023-03-12T01:20:57;2.30;99.90
64143;DHT22;50437;51.970;5.904;2023-03-12T01:23:24;2.20;99.90
64143;DHT22;50437;51.970;5.904;2023-03-12T01:25:50;2.20;99.90
64143;DHT22;50437;51.970;5.904;2023-03-12T01:28:17;2.20;99.90
64143;DHT22;50437;51.970;5.904;2023-03-12T01:30:43;2.20;99.90
64143;DHT22;50437;51.970;5.904;2023-03-12T01:33:09;2.20;99.90
64143;DHT22;50437;51.970;5.904;2023-03-12T01:35:36;2.20;99.90
64143;DHT22;50437;51.970;5.904;2023-03-12T01:38:02;2.10;99.90
64143;DHT22;50437;51.970;5.904;2023-03-12T01:40:28;2.10;99.90
64143;DHT22;50437;51.970;5.904;2023-03-12T01:42:57;2.10;99.90
64143;DHT22;50437;51.970;5.904;2023-03-12T01:48:08;2.20;99.90
64143;DHT22;50437;51.970;5.904;2023-03-12T01:50:34;2.20;99.90
64143;DHT22;50437;51.970;5.904;2023-03-12T01:53:01;2.10;99.90
64143;DHT22;50437;51.970;5.904;2023-03-12T01:55:27;2.10;99.90
64143;DHT22;50437;51.970;5.904;2023-03-12T01:57:54;2.10;99.90
64143;DHT22;50437;51.970;5.904;2023-03-12T02:00:23;2.10;99.90
64143;DHT22;50437;51.970;5.904;2023-03-12T02:02:51;2.10;99.90
64143;DHT22;50437;51.970;5.904;2023-03-12T02:05:26;2.10;99.90
64143;DHT22;50437;51.970;5.904;2023-03-12T02:07:53;2.10;99.90
64143;DHT22;50437;51.970;5.904;2023-03-12T02:10:20;2.10;99.90
64143;DHT22;50437;51.970;5.904;2023-03-12T02:12:46;2.10;99.90
64143;DHT22;50437;51.970;5.904;2023-03-12T02:15:12;2.10;99.90
64143;DHT22;50437;51.970;5.904;2023-03-12T02:17:38;2.10;99.90
64143;DHT22;50437;51.970;5.904;2023-03-12T02:20:08;2.10;99.90
64143;DHT22;50437;51.970;5.904;2023-03-12T02:22:38;2.10;99.90
64143;DHT22;50437;51.970;5.904;2023-03-12T02:27:51;2.10;99.90
64143;DHT22;50437;51.970;5.904;2023-03-12T02:30:17;2.10;99.90
64143;DHT22;50437;51.970;5.904;2023-03-12T02:32:44;2.10;99.90
64143;DHT22;50437;51.970;5.904;2023-03-12T02:35:12;2.20;99.90
64143;DHT22;50437;51.970;5.904;2023-03-12T02:37:48;2.10;99.90
64143;DHT22;50437;51.970;5.904;2023-03-12T02:40:32;2.10;99.90
64143;DHT22;50437;51.970;5.904;2023-03-12T02:42:59;2.10;99.90
64143;DHT22;50437;51.970;5.904;2023-03-12T02:45:26;2.20;99.90
64143;DHT22;50437;51.970;5.904;2023-03-12T02:47:55;2.20;99.90
64143;DHT22;50437;51.970;5.904;2023-03-12T02:50:21;2.20;99.90
64143;DHT22;50437;51.970;5.904;2023-03-12T02:52:47;2.20;99.90
64143;DHT22;50437;51.970;5.904;2023-03-12T02:55:13;2.20;99.90
64143;DHT22;50437;51.970;5.904;2023-03-12T02:57:39;2.10;99.90
64143;DHT22;50437;51.970;5.904;2023-03-12T03:00:09;2.20;99.90
64143;DHT22;50437;51.970;5.904;2023-03-12T03:02:41;2.20;99.90
64143;DHT22;50437;51.970;5.904;2023-03-12T03:05:07;2.20;99.90
64143;DHT22;50437;51.970;5.904;2023-03-12T03:07:34;2.20;99.90
64143;DHT22;50437;51.970;5.904;2023-03-12T03:10:00;2.20;99.90
64143;DHT22;50437;51.970;5.904;2023-03-12T03:12:30;2.20;99.90
64143;DHT22;50437;51.970;5.904;2023-03-12T03:14:56;2.20;99.90
64143;DHT22;50437;51.970;5.904;2023-03-12T03:17:22;2.20;99.90
64143;DHT22;50437;51.970;5.904;2023-03-12T03:19:52;2.20;99.90
64143;DHT22;50437;51.970;5.904;2023-03-12T03:22:18;2.20;99.90
64143;DHT22;50437;51.970;5.904;2023-03-12T03:24:45;2.30;99.90
64143;DHT22;50437;51.970;5.904;2023-03-12T03:27:12;2.20;99.90
64143;DHT22;50437;51.970;5.904;2023-03-12T03:29:38;2.30;99.90
64143;DHT22;50437;51.970;5.904;2023-03-12T03:32:04;2.30;99.90
64143;DHT22;50437;51.970;5.904;2023-03-12T03:34:31;2.20;99.90
64143;DHT22;50437;51.970;5.904;2023-03-12T03:36:57;2.30;99.90
64143;DHT22;50437;51.970;5.904;2023-03-12T03:39:24;2.20;99.90
64143;DHT22;50437;51.970;5.904;2023-03-12T03:41:50;2.20;99.90
64143;DHT22;50437;51.970;5.904;2023-03-12T03:44:19;2.20;99.90
64143;DHT22;50437;51.970;5.904;2023-03-12T03:46:48;2.30;99.90
64143;DHT22;50437;51.970;5.904;2023-03-12T03:49:14;2.30;99.90
64143;DHT22;50437;51.970;5.904;2023-03-12T03:51:41;2.30;99.90
64143;DHT22;50437;51.970;5.904;2023-03-12T03:54:09;2.30;99.90
64143;DHT22;50437;51.970;5.904;2023-03-12T03:56:35;2.30;99.90
64143;DHT22;50437;51.970;5.904;2023-03-12T03:59:03;2.20;99.90
64143;DHT22;50437;51.970;5.904;2023-03-12T04:01:30;2.20;99.90
64143;DHT22;50437;51.970;5.904;2023-03-12T04:03:57;2.30;99.90
64143;DHT22;50437;51.970;5.904;2023-03-12T04:06:23;2.30;99.90
64143;DHT22;50437;51.970;5.904;2023-03-12T04:08:49;2.30;99.90
64143;DHT22;50437;51.970;5.904;2023-03-12T04:11:18;2.30;99.90
64143;DHT22;50437;51.970;5.904;2023-03-12T04:13:45;2.30;99.90
64143;DHT22;50437;51.970;5.904;2023-03-12T04:16:12;2.30;99.90
64143;DHT22;50437;51.970;5.904;2023-03-12T04:18:38;2.30;99.90
64143;DHT22;50437;51.970;5.904;2023-03-12T04:21:06;2.30;99.90
64143;DHT22;50437;51.970;5.904;2023-03-12T04:23:33;2.30;99.90
64143;DHT22;50437;51.970;5.904;2023-03-12T04:25:59;2.30;99.90
64143;DHT22;50437;51.970;5.904;2023-03-12T04:28:26;2.40;99.90
64143;DHT22;50437;51.970;5.904;2023-03-12T04:31:00;2.30;99.90
64143;DHT22;50437;51.970;5.904;2023-03-12T04:33:31;2.40;99.90
64143;DHT22;50437;51.970;5.904;2023-03-12T04:35:58;2.40;99.90
64143;DHT22;50437;51.970;5.904;2023-03-12T04:38:26;2.40;99.90
64143;DHT22;50437;51.970;5.904;2023-03-12T04:41:27;2.40;99.90
64143;DHT22;50437;51.970;5.904;2023-03-12T04:43:50;2.40;99.90
64143;DHT22;50437;51.970;5.904;2023-03-12T04:46:18;2.40;99.90
64143;DHT22;50437;51.970;5.904;2023-03-12T04:48:44;2.40;99.90
64143;DHT22;50437;51.970;5.904;2023-03-12T04:51:11;2.40;99.90
64143;DHT22;50437;51.970;5.904;2023-03-12T04:53:37;2.40;99.90
64143;DHT22;50437;51.970;5.904;2023-03-12T04:56:05;2.50;99.90
64143;DHT22;50437;51.970;5.904;2023-03-12T04:58:32;2.50;99.90
64143;DHT22;50437;51.970;5.904;2023-03-12T05:00:58;2.50;99.90
64143;DHT22;50437;51.970;5.904;2023-03-12T05:03:24;2.50;99.90
64143;DHT22;50437;51.970;5.904;2023-03-12T05:05:50;2.50;99.90
64143;DHT22;50437;51.970;5.904;2023-03-12T05:08:16;2.50;99.90
64143;DHT22;50437;51.970;5.904;2023-03-12T05:10:42;2.50;99.90
64143;DHT22;50437;51.970;5.904;2023-03-12T05:13:22;2.60;99.90
64143;DHT22;50437;51.970;5.904;2023-03-12T05:15:51;2.60;99.90
64143;DHT22;50437;51.970;5.904;2023-03-12T05:18:18;2.60;99.90
64143;DHT22;50437;51.970;5.904;2023-03-12T05:20:46;2.50;99.90
64143;DHT22;50437;51.970;5.904;2023-03-12T05:23:12;2.50;99.90
64143;DHT22;50437;51.970;5.904;2023-03-12T05:25:39;2.50;99.90
64143;DHT22;50437;51.970;5.904;2023-03-12T05:28:05;2.50;99.90
64143;DHT22;50437;51.970;5.904;2023-03-12T05:30:31;2.50;99.90
64143;DHT22;50437;51.970;5.904;2023-03-12T05:32:57;2.50;99.90
64143;DHT22;50437;51.970;5.904;2023-03-12T05:35:23;2.40;99.90
64143;DHT22;50437;51.970;5.904;2023-03-12T05:37:49;2.50;99.90
64143;DHT22;50437;51.970;5.904;2023-03-12T05:40:16;2.40;99.90
64143;DHT22;50437;51.970;5.904;2023-03-12T05:42:42;2.50;99.90
64143;DHT22;50437;51.970;5.904;2023-03-12T05:45:08;2.40;99.90
64143;DHT22;50437;51.970;5.904;2023-03-12T05:47:35;2.40;99.90
64143;DHT22;50437;51.970;5.904;2023-03-12T05:50:02;2.50;99.90
64143;DHT22;50437;51.970;5.904;2023-03-12T05:52:28;2.40;99.90
64143;DHT22;50437;51.970;5.904;2023-03-12T05:54:54;2.40;99.90
64143;DHT22;50437;51.970;5.904;2023-03-12T05:57:21;2.40;99.90
64143;DHT22;50437;51.970;5.904;2023-03-12T05:59:47;2.50;99.90
64143;DHT22;50437;51.970;5.904;2023-03-12T06:02:13;2.50;99.90
64143;DHT22;50437;51.970;5.904;2023-03-12T06:04:39;2.50;99.90
64143;DHT22;50437;51.970;5.904;2023-03-12T06:07:06;2.50;99.90
64143;DHT22;50437;51.970;5.904;2023-03-12T06:09:34;2.50;99.90
64143;DHT22;50437;51.970;5.904;2023-03-12T06:12:00;2.60;99.90
64143;DHT22;50437;51.970;5.904;2023-03-12T06:14:26;2.50;99.90
64143;DHT22;50437;51.970;5.904;2023-03-12T06:16:53;2.50;99.90
64143;DHT22;50437;51.970;5.904;2023-03-12T06:19:19;2.60;99.90
64143;DHT22;50437;51.970;5.904;2023-03-12T06:21:47;2.60;99.90
64143;DHT22;50437;51.970;5.904;2023-03-12T06:24:13;2.60;99.90
64143;DHT22;50437;51.970;5.904;2023-03-12T06:26:43;2.60;99.90
64143;DHT22;50437;51.970;5.904;2023-03-12T06:29:09;2.60;99.90
64143;DHT22;50437;51.970;5.904;2023-03-12T06:31:35;2.60;99.90
64143;DHT22;50437;51.970;5.904;2023-03-12T06:34:02;2.50;99.90
64143;DHT22;50437;51.970;5.904;2023-03-12T06:36:28;2.60;99.90
64143;DHT22;50437;51.970;5.904;2023-03-12T06:38:54;2.50;99.90
64143;DHT22;50437;51.970;5.904;2023-03-12T06:41:20;2.50;99.90
64143;DHT22;50437;51.970;5.904;2023-03-12T06:43:46;2.50;99.90
64143;DHT22;50437;51.970;5.904;2023-03-12T06:46:13;2.50;99.90
64143;DHT22;50437;51.970;5.904;2023-03-12T06:48:39;2.50;99.90
64143;DHT22;50437;51.970;5.904;2023-03-12T06:51:06;2.50;99.90
64143;DHT22;50437;51.970;5.904;2023-03-12T06:53:32;2.50;99.90
64143;DHT22;50437;51.970;5.904;2023-03-12T06:55:58;2.50;99.90
64143;DHT22;50437;51.970;5.904;2023-03-12T06:58:24;2.50;99.90
64143;DHT22;50437;51.970;5.904;2023-03-12T07:00:51;2.50;99.90
64143;DHT22;50437;51.970;5.904;2023-03-12T07:03:17;2.50;99.90
64143;DHT22;50437;51.970;5.904;2023-03-12T07:05:43;2.60;99.90
64143;DHT22;50437;51.970;5.904;2023-03-12T07:08:11;2.60;99.90
64143;DHT22;50437;51.970;5.904;2023-03-12T07:10:37;2.60;99.90
64143;DHT22;50437;51.970;5.904;2023-03-12T07:13:03;2.60;99.90
64143;DHT22;50437;51.970;5.904;2023-03-12T07:15:29;2.70;99.90
64143;DHT22;50437;51.970;5.904;2023-03-12T07:17:58;2.80;99.90
64143;DHT22;50437;51.970;5.904;2023-03-12T07:20:24;2.80;99.90
64143;DHT22;50437;51.970;5.904;2023-03-12T07:22:50;2.80;99.90
64143;DHT22;50437;51.970;5.904;2023-03-12T07:25:16;3.00;99.90
64143;DHT22;50437;51.970;5.904;2023-03-12T07:27:42;3.00;99.90
64143;DHT22;50437;51.970;5.904;2023-03-12T07:30:10;3.10;99.90
64143;DHT22;50437;51.970;5.904;2023-03-12T07:32:36;3.10;99.90
64143;DHT22;50437;51.970;5.904;2023-03-12T07:35:03;3.10;99.90
64143;DHT22;50437;51.970;5.904;2023-03-12T07:37:29;3.10;99.90
64143;DHT22;50437;51.970;5.904;2023-03-12T07:39:55;3.00;99.90
64143;DHT22;50437;51.970;5.904;2023-03-12T07:42:21;3.00;99.90
64143;DHT22;50437;51.970;5.904;2023-03-12T07:44:59;3.00;99.90
64143;DHT22;50437;51.970;5.904;2023-03-12T07:50:26;3.00;99.90
64143;DHT22;50437;51.970;5.904;2023-03-12T07:52:52;2.90;99.90
64143;DHT22;50437;51.970;5.904;2023-03-12T07:55:22;2.90;99.90
64143;DHT22;50437;51.970;5.904;2023-03-12T07:57:48;2.90;99.90
64143;DHT22;50437;51.970;5.904;2023-03-12T08:03:27;3.00;99.90
64143;DHT22;50437;51.970;5.904;2023-03-12T08:05:57;3.00;99.90
64143;DHT22;50437;51.970;5.904;2023-03-12T08:15:07;3.00;99.90
64143;DHT22;50437;51.970;5.904;2023-03-12T08:17:49;3.10;99.90
64143;DHT22;50437;51.970;5.904;2023-03-12T08:27:19;3.20;99.90
64143;DHT22;50437;51.970;5.904;2023-03-12T08:33:28;3.30;99.90
64143;DHT22;50437;51.970;5.904;2023-03-12T08:39:46;3.20;99.90
64143;DHT22;50437;51.970;5.904;2023-03-12T08:42:18;3.30;99.90
64143;DHT22;50437;51.970;5.904;2023-03-12T08:48:32;3.40;99.90
64143;DHT22;50437;51.970;5.904;2023-03-12T08:51:29;3.50;99.90
64143;DHT22;50437;51.970;5.904;2023-03-12T08:54:01;3.60;99.90
64143;DHT22;50437;51.970;5.904;2023-03-12T08:56:30;3.60;99.90
64143;DHT22;50437;51.970;5.904;2023-03-12T09:02:35;3.60;99.90
64143;DHT22;50437;51.970;5.904;2023-03-12T09:08:13;3.70;99.90
64143;DHT22;50437;51.970;5.904;2023-03-12T09:11:09;3.70;99.90
64143;DHT22;50437;51.970;5.904;2023-03-12T09:13:53;3.70;99.90
64143;DHT22;50437;51.970;5.904;2023-03-12T09:20:40;3.90;99.90
64143;DHT22;50437;51.970;5.904;2023-03-12T09:40:51;4.30;99.90
64143;DHT22;50437;51.970;5.904;2023-03-12T09:48:22;4.40;99.90
64143;DHT22;50437;51.970;5.904;2023-03-12T09:57:38;4.80;99.90
64143;DHT22;50437;51.970;5.904;2023-03-12T10:28:42;5.60;99.90
64143;DHT22;50437;51.970;5.904;2023-03-12T10:55:22;6.50;99.90
64143;DHT22;50437;51.970;5.904;2023-03-12T10:58:30;6.50;99.90
64143;DHT22;50437;51.970;5.904;2023-03-12T11:01:29;6.70;99.90
64143;DHT22;50437;51.970;5.904;2023-03-12T11:04:34;6.80;99.90
64143;DHT22;50437;51.970;5.904;2023-03-12T11:10:47;7.10;99.90
64143;DHT22;50437;51.970;5.904;2023-03-12T11:13:35;7.10;99.90
64143;DHT22;50437;51.970;5.904;2023-03-12T11:16:20;7.10;99.90
64143;DHT22;50437;51.970;5.904;2023-03-12T11:22:25;7.20;99.90
64143;DHT22;50437;51.970;5.904;2023-03-12T11:24:29;7.30;99.90
64143;DHT22;50437;51.970;5.904;2023-03-12T11:27:03;7.40;99.90
64143;DHT22;50437;51.970;5.904;2023-03-12T11:32:17;7.60;99.90
64143;DHT22;50437;51.970;5.904;2023-03-12T11:34:43;7.70;99.90
64143;DHT22;50437;51.970;5.904;2023-03-12T11:37:14;7.80;99.90
64143;DHT22;50437;51.970;5.904;2023-03-12T11:39:48;7.80;99.90
64143;DHT22;50437;51.970;5.904;2023-03-12T11:42:35;7.90;99.90
64143;DHT22;50437;51.970;5.904;2023-03-12T11:50:26;8.20;99.90
64143;DHT22;50437;51.970;5.904;2023-03-12T11:53:06;8.30;99.90
64143;DHT22;50437;51.970;5.904;2023-03-12T12:06:12;8.70;99.90
64143;DHT22;50437;51.970;5.904;2023-03-12T12:11:25;8.70;99.90
64143;DHT22;50437;51.970;5.904;2023-03-12T12:14:14;8.80;99.90
64143;DHT22;50437;51.970;5.904;2023-03-12T12:27:25;9.00;99.90
64143;DHT22;50437;51.970;5.904;2023-03-12T12:29:57;9.10;99.90
64143;DHT22;50437;51.970;5.904;2023-03-12T12:32:29;9.30;99.90
64143;DHT22;50437;51.970;5.904;2023-03-12T12:35:07;9.40;99.90
64143;DHT22;50437;51.970;5.904;2023-03-12T12:37:41;9.40;99.90
64143;DHT22;50437;51.970;5.904;2023-03-12T12:40:14;9.30;99.90
64143;DHT22;50437;51.970;5.904;2023-03-12T12:45:18;9.20;99.90
64143;DHT22;50437;51.970;5.904;2023-03-12T12:47:49;9.30;99.90
64143;DHT22;50437;51.970;5.904;2023-03-12T12:50:18;9.20;99.90
64143;DHT22;50437;51.970;5.904;2023-03-12T12:52:45;9.10;99.90
64143;DHT22;50437;51.970;5.904;2023-03-12T12:58:22;9.40;99.90
64143;DHT22;50437;51.970;5.904;2023-03-12T13:00:54;9.40;99.90
64143;DHT22;50437;51.970;5.904;2023-03-12T13:03:23;9.30;99.90
64143;DHT22;50437;51.970;5.904;2023-03-12T13:11:04;9.40;99.90
64143;DHT22;50437;51.970;5.904;2023-03-12T13:13:31;9.40;99.90
64143;DHT22;50437;51.970;5.904;2023-03-12T13:18:54;9.60;99.90
64143;DHT22;50437;51.970;5.904;2023-03-12T13:24:27;9.50;99.90
64143;DHT22;50437;51.970;5.904;2023-03-12T13:27:07;9.50;99.90
64143;DHT22;50437;51.970;5.904;2023-03-12T13:29:38;9.60;99.90
64143;DHT22;50437;51.970;5.904;2023-03-12T13:32:05;9.80;99.90
64143;DHT22;50437;51.970;5.904;2023-03-12T13:34:43;9.80;99.90
64143;DHT22;50437;51.970;5.904;2023-03-12T13:37:22;9.90;99.90
64143;DHT22;50437;51.970;5.904;2023-03-12T13:39:52;10.00;99.90
64143;DHT22;50437;51.970;5.904;2023-03-12T13:44:47;9.90;99.90
64143;DHT22;50437;51.970;5.904;2023-03-12T13:47:35;9.90;99.90
64143;DHT22;50437;51.970;5.904;2023-03-12T13:50:05;10.00;99.90
64143;DHT22;50437;51.970;5.904;2023-03-12T13:55:05;10.10;99.90
64143;DHT22;50437;51.970;5.904;2023-03-12T13:57:35;10.20;99.90
64143;DHT22;50437;51.970;5.904;2023-03-12T14:00:05;10.20;99.90
64143;DHT22;50437;51.970;5.904;2023-03-12T14:02:36;10.20;99.90
64143;DHT22;50437;51.970;5.904;2023-03-12T14:05:06;10.20;99.90
64143;DHT22;50437;51.970;5.904;2023-03-12T14:12:56;10.70;99.90
64143;DHT22;50437;51.970;5.904;2023-03-12T14:18:01;11.20;99.90
64143;DHT22;50437;51.970;5.904;2023-03-12T14:20:28;11.00;99.90
64143;DHT22;50437;51.970;5.904;2023-03-12T14:22:57;11.00;99.90
64143;DHT22;50437;51.970;5.904;2023-03-12T14:27:51;10.90;99.90
64143;DHT22;50437;51.970;5.904;2023-03-12T14:30:21;11.00;99.90
64143;DHT22;50437;51.970;5.904;2023-03-12T14:32:48;11.10;99.90
64143;DHT22;50437;51.970;5.904;2023-03-12T14:35:20;11.20;99.90
64143;DHT22;50437;51.970;5.904;2023-03-12T14:37:51;11.20;99.90
64143;DHT22;50437;51.970;5.904;2023-03-12T14:40:24;11.20;99.90
64143;DHT22;50437;51.970;5.904;2023-03-12T14:42:51;10.90;99.90
64143;DHT22;50437;51.970;5.904;2023-03-12T14:45:18;10.90;99.90
64143;DHT22;50437;51.970;5.904;2023-03-12T14:47:51;10.80;99.90
64143;DHT22;50437;51.970;5.904;2023-03-12T14:52:44;10.80;99.90
64143;DHT22;50437;51.970;5.904;2023-03-12T14:55:11;10.80;99.90
64143;DHT22;50437;51.970;5.904;2023-03-12T14:57:37;10.80;99.90
64143;DHT22;50437;51.970;5.904;2023-03-12T15:00:03;10.70;99.90
64143;DHT22;50437;51.970;5.904;2023-03-12T15:02:36;10.70;99.90
64143;DHT22;50437;51.970;5.904;2023-03-12T15:05:02;10.70;99.90
64143;DHT22;50437;51.970;5.904;2023-03-12T15:07:35;10.80;99.90
64143;DHT22;50437;51.970;5.904;2023-03-12T15:10:05;10.80;99.90
64143;DHT22;50437;51.970;5.904;2023-03-12T15:12:33;10.80;99.90
64143;DHT22;50437;51.970;5.904;2023-03-12T15:15:00;10.80;99.90
64143;DHT22;50437;51.970;5.904;2023-03-12T15:17:28;10.70;99.90
64143;DHT22;50437;51.970;5.904;2023-03-12T15:19:54;10.70;99.90
64143;DHT22;50437;51.970;5.904;2023-03-12T15:22:22;10.70;99.90
64143;DHT22;50437;51.970;5.904;2023-03-12T15:24:49;10.80;99.90
64143;DHT22;50437;51.970;5.904;2023-03-12T15:27:19;10.80;99.90
64143;DHT22;50437;51.970;5.904;2023-03-12T15:29:45;11.00;99.90
64143;DHT22;50437;51.970;5.904;2023-03-12T15:32:14;11.00;99.90
64143;DHT22;50437;51.970;5.904;2023-03-12T15:34:41;10.90;99.90
64143;DHT22;50437;51.970;5.904;2023-03-12T15:39:51;10.80;99.90
64143;DHT22;50437;51.970;5.904;2023-03-12T15:42:19;10.80;99.90
64143;DHT22;50437;51.970;5.904;2023-03-12T15:44:46;10.80;99.90
64143;DHT22;50437;51.970;5.904;2023-03-12T15:47:14;10.80;99.90
64143;DHT22;50437;51.970;5.904;2023-03-12T15:49:40;10.70;99.90
64143;DHT22;50437;51.970;5.904;2023-03-12T15:57:28;10.50;99.90
64143;DHT22;50437;51.970;5.904;2023-03-12T16:02:35;10.50;99.90
64143;DHT22;50437;51.970;5.904;2023-03-12T16:05:01;10.50;99.90
64143;DHT22;50437;51.970;5.904;2023-03-12T16:07:27;10.50;99.90
64143;DHT22;50437;51.970;5.904;2023-03-12T16:09:53;10.50;99.90
64143;DHT22;50437;51.970;5.904;2023-03-12T16:12:19;10.40;99.90
64143;DHT22;50437;51.970;5.904;2023-03-12T16:14:45;10.40;99.90
64143;DHT22;50437;51.970;5.904;2023-03-12T16:17:13;10.40;99.90
64143;DHT22;50437;51.970;5.904;2023-03-12T16:19:41;10.40;99.90
64143;DHT22;50437;51.970;5.904;2023-03-12T16:22:07;10.30;99.90
64143;DHT22;50437;51.970;5.904;2023-03-12T16:24:33;10.30;99.90
64143;DHT22;50437;51.970;5.904;2023-03-12T16:26:59;10.30;99.90
64143;DHT22;50437;51.970;5.904;2023-03-12T16:29:27;10.30;99.90
64143;DHT22;50437;51.970;5.904;2023-03-12T16:31:55;10.20;99.90
64143;DHT22;50437;51.970;5.904;2023-03-12T16:34:21;10.20;99.90
64143;DHT22;50437;51.970;5.904;2023-03-12T16:36:47;10.20;99.90
64143;DHT22;50437;51.970;5.904;2023-03-12T16:39:13;10.10;99.90
64143;DHT22;50437;51.970;5.904;2023-03-12T16:41:39;10.10;99.90
64143;DHT22;50437;51.970;5.904;2023-03-12T16:44:06;10.10;99.90
64143;DHT22;50437;51.970;5.904;2023-03-12T16:46:32;10.00;99.90
64143;DHT22;50437;51.970;5.904;2023-03-12T16:48:59;10.00;99.90
64143;DHT22;50437;51.970;5.904;2023-03-12T16:51:25;9.90;99.90
64143;DHT22;50437;51.970;5.904;2023-03-12T16:53:53;9.90;99.90
64143;DHT22;50437;51.970;5.904;2023-03-12T16:56:19;9.90;99.90
64143;DHT22;50437;51.970;5.904;2023-03-12T16:58:46;9.90;99.90
64143;DHT22;50437;51.970;5.904;2023-03-12T17:01:16;9.80;99.90
64143;DHT22;50437;51.970;5.904;2023-03-12T17:03:43;9.80;99.90
64143;DHT22;50437;51.970;5.904;2023-03-12T17:06:17;9.80;99.90
64143;DHT22;50437;51.970;5.904;2023-03-12T17:08:43;9.80;99.90
64143;DHT22;50437;51.970;5.904;2023-03-12T17:11:22;9.80;99.90
64143;DHT22;50437;51.970;5.904;2023-03-12T17:13:51;9.70;99.90
64143;DHT22;50437;51.970;5.904;2023-03-12T17:16:18;9.80;99.90
64143;DHT22;50437;51.970;5.904;2023-03-12T17:18:44;9.70;99.90
64143;DHT22;50437;51.970;5.904;2023-03-12T17:21:14;9.70;99.90
64143;DHT22;50437;51.970;5.904;2023-03-12T17:23:40;9.80;99.90
64143;DHT22;50437;51.970;5.904;2023-03-12T17:26:06;9.70;99.90
64143;DHT22;50437;51.970;5.904;2023-03-12T17:28:32;9.80;99.90
64143;DHT22;50437;51.970;5.904;2023-03-12T17:30:58;9.80;99.90
64143;DHT22;50437;51.970;5.904;2023-03-12T17:33:27;9.80;99.90
64143;DHT22;50437;51.970;5.904;2023-03-12T17:35:58;9.80;99.90
64143;DHT22;50437;51.970;5.904;2023-03-12T17:38:24;9.70;99.90
64143;DHT22;50437;51.970;5.904;2023-03-12T17:40:53;9.80;99.90
64143;DHT22;50437;51.970;5.904;2023-03-12T17:43:22;9.80;99.90
64143;DHT22;50437;51.970;5.904;2023-03-12T17:45:48;9.80;99.90
64143;DHT22;50437;51.970;5.904;2023-03-12T17:48:15;9.70;99.90
64143;DHT22;50437;51.970;5.904;2023-03-12T17:50:41;9.60;99.90
64143;DHT22;50437;51.970;5.904;2023-03-12T17:53:07;9.60;99.90
64143;DHT22;50437;51.970;5.904;2023-03-12T17:55:40;9.60;99.90
64143;DHT22;50437;51.970;5.904;2023-03-12T17:58:08;9.70;99.90
64143;DHT22;50437;51.970;5.904;2023-03-12T18:00:34;9.60;99.90
64143;DHT22;50437;51.970;5.904;2023-03-12T18:03:00;9.60;99.90
64143;DHT22;50437;51.970;5.904;2023-03-12T18:05:27;9.60;99.90
64143;DHT22;50437;51.970;5.904;2023-03-12T18:07:53;9.60;99.90
64143;DHT22;50437;51.970;5.904;2023-03-12T18:10:19;9.50;99.90
64143;DHT22;50437;51.970;5.904;2023-03-12T18:12:45;9.50;99.90
64143;DHT22;50437;51.970;5.904;2023-03-12T18:15:12;9.50;99.90
64143;DHT22;50437;51.970;5.904;2023-03-12T18:17:38;9.50;99.90
64143;DHT22;50437;51.970;5.904;2023-03-12T18:20:04;9.50;99.90
64143;DHT22;50437;51.970;5.904;2023-03-12T18:22:34;9.50;99.90
64143;DHT22;50437;51.970;5.904;2023-03-12T18:25:00;9.40;99.90
64143;DHT22;50437;51.970;5.904;2023-03-12T18:27:26;9.50;99.90
64143;DHT22;50437;51.970;5.904;2023-03-12T18:29:52;9.40;99.90
64143;DHT22;50437;51.970;5.904;2023-03-12T18:32:18;9.40;99.90
64143;DHT22;50437;51.970;5.904;2023-03-12T18:34:44;9.40;99.90
64143;DHT22;50437;51.970;5.904;2023-03-12T18:37:10;9.40;99.90
64143;DHT22;50437;51.970;5.904;2023-03-12T18:39:39;9.30;99.90
64143;DHT22;50437;51.970;5.904;2023-03-12T18:42:05;9.30;99.90
64143;DHT22;50437;51.970;5.904;2023-03-12T18:44:31;9.30;99.90
64143;DHT22;50437;51.970;5.904;2023-03-12T18:46:57;9.30;99.90
64143;DHT22;50437;51.970;5.904;2023-03-12T18:49:24;9.30;99.90
64143;DHT22;50437;51.970;5.904;2023-03-12T18:51:50;9.30;99.90
64143;DHT22;50437;51.970;5.904;2023-03-12T18:54:38;9.30;99.90
64143;DHT22;50437;51.970;5.904;2023-03-12T18:57:04;9.30;99.90
64143;DHT22;50437;51.970;5.904;2023-03-12T18:59:30;9.30;99.90
64143;DHT22;50437;51.970;5.904;2023-03-12T19:01:56;9.30;99.90
64143;DHT22;50437;51.970;5.904;2023-03-12T19:04:22;9.30;99.90
64143;DHT22;50437;51.970;5.904;2023-03-12T19:06:50;9.20;99.90
64143;DHT22;50437;51.970;5.904;2023-03-12T19:09:16;9.20;99.90
64143;DHT22;50437;51.970;5.904;2023-03-12T19:11:42;9.20;99.90
64143;DHT22;50437;51.970;5.904;2023-03-12T19:14:08;9.20;99.90
64143;DHT22;50437;51.970;5.904;2023-03-12T19:16:34;9.20;99.90
64143;DHT22;50437;51.970;5.904;2023-03-12T19:19:00;9.20;99.90
64143;DHT22;50437;51.970;5.904;2023-03-12T19:21:26;9.20;99.90
64143;DHT22;50437;51.970;5.904;2023-03-12T19:23:52;9.20;99.90